Sebewaing, Michigan
Current Conditions -  °F | °C
As of 2:15 PM on Thursday 30 Oct 2014 (Local Time) from KCFS Reporting Station
Overcast Overcast  
Wind Chill:   Ceiling: 4800
Heat Index:   Visibility: 10mi
Dew Point:   Wind: 6mph
Humidity: 66%   Direction: 200°SSW
Pressure: 30.08"   Gusts: NA
Location:  43.73°N, 83.45°W
Report Text: KCFS 301815Z AUTO 20005KT 10SM OVC048 09/03 A3008 RMK AO2 T00860025
Loading
Personal Weather Stations






























Interactive Weather Map
Tropical Storm Tracking
New forecast layout! Learn more

10-Day Weather Forecast

Advertisements
Track Severe Weather on mobile